createdAt,value
2023-02-05T00:02:09.538Z,101887.27
2023-02-05T00:04:36.882Z,101889.42
2023-02-05T00:07:04.524Z,101893.39
2023-02-05T00:09:31.314Z,101892.66
2023-02-05T00:11:58.998Z,101889.25
2023-02-05T00:14:26.168Z,101885.69
2023-02-05T00:16:54.232Z,101889.90
2023-02-05T00:19:21.512Z,101886.11
2023-02-05T00:21:49.837Z,101884.98
2023-02-05T00:24:17.065Z,101883.91
2023-02-05T00:26:44.700Z,101887.13
2023-02-05T00:29:11.899Z,101889.25
2023-02-05T00:31:39.990Z,101893.23
2023-02-05T00:34:08.254Z,101893.89
2023-02-05T00:36:35.049Z,101893.11
2023-02-05T00:39:02.162Z,101893.73
2023-02-05T00:41:29.027Z,101897.31
2023-02-05T00:43:55.786Z,101895.48
2023-02-05T00:46:22.669Z,101893.01
2023-02-05T00:48:49.788Z,101893.16
2023-02-05T00:51:16.643Z,101892.36
2023-02-05T00:53:43.473Z,101895.40
2023-02-05T00:56:10.615Z,101897.55
2023-02-05T00:58:37.589Z,101904.25
2023-02-05T01:01:04.980Z,101903.48
2023-02-05T01:03:32.767Z,101904.85
2023-02-05T01:05:59.855Z,101908.73
2023-02-05T01:08:26.657Z,101908.58
2023-02-05T01:10:54.364Z,101904.67
2023-02-05T01:13:21.707Z,101903.67
2023-02-05T01:15:49.563Z,101898.79
2023-02-05T01:18:17.072Z,101898.69
2023-02-05T01:20:44.596Z,101895.18
2023-02-05T01:23:12.477Z,101895.06
2023-02-05T01:25:39.325Z,101894.68
2023-02-05T01:28:07.378Z,101892.86
2023-02-05T01:30:34.330Z,101897.42
2023-02-05T01:33:01.772Z,101900.19
2023-02-05T01:35:28.958Z,101895.27
2023-02-05T01:37:55.805Z,101894.59
2023-02-05T01:40:23.181Z,101889.87
2023-02-05T01:42:50.010Z,101890.41
2023-02-05T01:45:51.832Z,101893.38
2023-02-05T01:48:22.851Z,101890.13
2023-02-05T01:50:52.365Z,101889.69
2023-02-05T01:53:24.213Z,101885.05
2023-02-05T01:55:56.590Z,101882.90
2023-02-05T01:58:23.860Z,101882.08
2023-02-05T02:00:50.953Z,101880.52
2023-02-05T02:03:18.297Z,101875.63
2023-02-05T02:05:45.033Z,101873.11
2023-02-05T02:08:14.720Z,101881.64
2023-02-05T02:10:44.756Z,101878.41
2023-02-05T02:13:13.334Z,101885.55
2023-02-05T02:15:41.363Z,101884.70
2023-02-05T02:18:26.762Z,101886.52
2023-02-05T02:21:06.948Z,101887.26
2023-02-05T02:23:49.126Z,101888.87
2023-02-05T02:26:44.435Z,101884.34
2023-02-05T02:29:18.898Z,101882.36
2023-02-05T02:31:52.084Z,101878.80
2023-02-05T02:34:24.005Z,101878.60
2023-02-05T02:36:58.166Z,101882.95
2023-02-05T02:39:30.811Z,101890.95
2023-02-05T02:42:03.941Z,101892.02
2023-02-05T02:44:35.511Z,101897.16
2023-02-05T02:47:06.985Z,101904.06
2023-02-05T02:49:40.481Z,101905.63
2023-02-05T02:52:11.100Z,101905.19
2023-02-05T02:54:41.095Z,101903.15
2023-02-05T02:57:11.385Z,101901.61
2023-02-05T02:59:42.118Z,101907.98
2023-02-05T03:02:12.448Z,101909.90
2023-02-05T03:04:42.303Z,101911.41
2023-02-05T03:07:13.663Z,101914.50
2023-02-05T03:09:52.146Z,101923.21
2023-02-05T03:12:20.219Z,101926.43
2023-02-05T03:14:47.409Z,101922.58
2023-02-05T03:17:18.708Z,101920.02
2023-02-05T03:19:46.646Z,101920.68
2023-02-05T03:22:13.429Z,101918.76
2023-02-05T03:24:40.683Z,101914.88
2023-02-05T03:27:08.063Z,101910.90
2023-02-05T03:29:39.280Z,101908.48
2023-02-05T03:32:23.008Z,101907.27
2023-02-05T03:35:06.108Z,101901.55
2023-02-05T03:37:42.510Z,101904.93
2023-02-05T03:40:20.088Z,101900.66
2023-02-05T03:42:54.652Z,101900.48
2023-02-05T03:45:34.540Z,101902.31
2023-02-05T03:48:17.853Z,101904.95
2023-02-05T03:50:50.261Z,101902.52
2023-02-05T03:53:24.801Z,101898.51
2023-02-05T03:55:56.801Z,101898.84
2023-02-05T03:58:28.660Z,101897.98
2023-02-05T04:00:55.712Z,101901.37
2023-02-05T04:03:23.382Z,101904.61
2023-02-05T04:05:50.978Z,101907.27
2023-02-05T04:08:18.837Z,101906.80
2023-02-05T04:10:47.704Z,101908.00
2023-02-05T04:13:14.594Z,101908.05
2023-02-05T04:15:41.574Z,101906.20
2023-02-05T04:18:09.424Z,101901.66
2023-02-05T04:20:36.419Z,101900.49
2023-02-05T04:23:03.886Z,101908.00
2023-02-05T04:25:31.418Z,101907.48
2023-02-05T04:28:00.912Z,101909.04
2023-02-05T04:30:28.402Z,101917.59
2023-02-05T04:32:55.407Z,101914.04
2023-02-05T04:35:22.297Z,101919.75
2023-02-05T04:37:49.588Z,101925.66
2023-02-05T04:40:17.672Z,101925.79
2023-02-05T04:42:45.416Z,101925.90
2023-02-05T04:45:12.652Z,101921.54
2023-02-05T04:47:39.805Z,101923.48
2023-02-05T04:50:07.236Z,101924.13
2023-02-05T04:52:34.025Z,101922.91
2023-02-05T04:55:00.896Z,101932.88
2023-02-05T04:57:27.889Z,101932.02
2023-02-05T04:59:54.736Z,101934.41
2023-02-05T05:02:23.182Z,101930.26
2023-02-05T05:04:50.232Z,101933.30
2023-02-05T05:07:17.036Z,101929.83
2023-02-05T05:09:43.797Z,101932.48
2023-02-05T05:12:10.940Z,101930.09
2023-02-05T05:14:38.799Z,101926.96
2023-02-05T05:17:05.847Z,101935.30
2023-02-05T05:19:32.762Z,101933.11
2023-02-05T05:21:59.821Z,101932.40
2023-02-05T05:24:26.629Z,101930.95
2023-02-05T05:26:53.436Z,101934.75
2023-02-05T05:29:20.227Z,101935.53
2023-02-05T05:31:47.160Z,101938.73
2023-02-05T05:34:14.054Z,101931.94
2023-02-05T05:36:43.701Z,101935.10
2023-02-05T05:39:28.592Z,101938.35
2023-02-05T05:42:13.092Z,101941.52
2023-02-05T05:44:40.209Z,101945.30
2023-02-05T05:47:07.222Z,101942.21
2023-02-05T05:49:34.075Z,101948.11
2023-02-05T05:52:01.059Z,101950.20
2023-02-05T05:54:27.985Z,101952.77
2023-02-05T05:56:54.714Z,101954.21
2023-02-05T05:59:21.492Z,101954.98
2023-02-05T06:01:48.297Z,101961.80
2023-02-05T06:04:15.107Z,101973.17
2023-02-05T06:06:42.647Z,101970.40
2023-02-05T06:09:09.441Z,101975.77
2023-02-05T06:11:36.348Z,101976.05
2023-02-05T06:14:03.129Z,101976.90
2023-02-05T06:16:29.946Z,101973.52
2023-02-05T06:18:58.001Z,101978.02
2023-02-05T06:21:25.123Z,101974.85
2023-02-05T06:23:51.884Z,101976.08
2023-02-05T06:26:18.772Z,101977.89
2023-02-05T06:28:45.552Z,101981.30
2023-02-05T06:31:12.320Z,101988.38
2023-02-05T06:33:39.184Z,101991.16
2023-02-05T06:36:06.921Z,101998.67
2023-02-05T06:38:33.696Z,101994.54
2023-02-05T06:41:00.675Z,101994.48
2023-02-05T06:43:27.698Z,101993.61
2023-02-05T06:45:55.698Z,101995.80
2023-02-05T06:48:22.546Z,101996.02
2023-02-05T06:50:49.514Z,101998.61
2023-02-05T06:53:16.282Z,102002.15
2023-02-05T06:55:43.252Z,102007.07
2023-02-05T06:58:10.004Z,102009.30
2023-02-05T07:00:37.217Z,102012.73
2023-02-05T07:03:04.277Z,102009.98
2023-02-05T07:05:31.536Z,102011.69
2023-02-05T07:07:59.866Z,102014.90
2023-02-05T07:10:26.803Z,102015.08
2023-02-05T07:12:53.587Z,102013.99
2023-02-05T07:15:20.784Z,102022.85
2023-02-05T07:17:47.603Z,102027.23
2023-02-05T07:20:16.776Z,102028.06
2023-02-05T07:22:43.732Z,102030.31
2023-02-05T07:25:11.137Z,102027.77
2023-02-05T07:27:37.904Z,102029.14
2023-02-05T07:30:05.275Z,102025.09
2023-02-05T07:32:32.065Z,102030.20
2023-02-05T07:34:59.188Z,102031.33
2023-02-05T07:37:26.236Z,102032.20
2023-02-05T07:39:53.388Z,102031.83
2023-02-05T07:42:20.529Z,102035.08
2023-02-05T07:44:49.942Z,102035.14
2023-02-05T07:47:16.712Z,102034.73
2023-02-05T07:49:43.835Z,102039.18
2023-02-05T07:52:10.768Z,102038.32
2023-02-05T07:54:37.546Z,102035.70
2023-02-05T07:57:07.189Z,102036.33
2023-02-05T07:59:33.959Z,102038.60
2023-02-05T08:02:00.808Z,102038.98
2023-02-05T08:04:27.874Z,102041.89
2023-02-05T08:06:54.880Z,102041.91
2023-02-05T08:09:21.872Z,102044.84
2023-02-05T08:11:49.047Z,102046.51
2023-02-05T08:14:15.965Z,102041.86
2023-02-05T08:16:42.956Z,102046.23
2023-02-05T08:19:14.618Z,102051.92
2023-02-05T08:21:41.480Z,102054.58
2023-02-05T08:24:08.729Z,102061.80
2023-02-05T08:26:36.058Z,102069.07
2023-02-05T08:29:03.172Z,102075.73
2023-02-05T08:31:30.098Z,102085.49
2023-02-05T08:34:00.093Z,102080.02
2023-02-05T08:36:27.304Z,102086.02
2023-02-05T08:38:54.172Z,102089.02
2023-02-05T08:41:21.186Z,102087.00
2023-02-05T08:43:50.002Z,102087.16
2023-02-05T08:46:19.387Z,102078.77
2023-02-05T08:48:46.703Z,102082.46
2023-02-05T08:51:14.736Z,102086.48
2023-02-05T08:53:41.734Z,102087.60
2023-02-05T08:56:10.665Z,102092.73
2023-02-05T08:58:37.946Z,102094.96
2023-02-05T09:01:06.621Z,102099.36
2023-02-05T09:03:33.897Z,102105.55
2023-02-05T09:06:01.648Z,102107.55
2023-02-05T09:08:31.114Z,102113.20
2023-02-05T09:10:58.357Z,102112.68
2023-02-05T09:13:25.244Z,102121.34
2023-02-05T09:15:52.145Z,102118.09
2023-02-05T09:18:19.153Z,102125.81
2023-02-05T09:20:47.596Z,102133.39
2023-02-05T09:23:15.912Z,102133.91
2023-02-05T09:25:43.613Z,102133.50
2023-02-05T09:28:12.480Z,102135.27
2023-02-05T09:30:40.159Z,102138.67
2023-02-05T09:33:07.299Z,102145.86
2023-02-05T09:35:36.031Z,102145.96
2023-02-05T09:38:03.460Z,102153.10
2023-02-05T09:40:35.506Z,102156.30
2023-02-05T09:43:09.669Z,102154.79
2023-02-05T09:45:46.475Z,102155.17
2023-02-05T09:48:31.903Z,102150.62
2023-02-05T09:51:00.358Z,102139.84
2023-02-05T09:53:35.132Z,102138.43
2023-02-05T09:56:05.463Z,102139.36
2023-02-05T09:58:37.849Z,102139.91
2023-02-05T10:01:08.555Z,102139.39
2023-02-05T10:03:44.401Z,102139.60
2023-02-05T10:06:24.102Z,102142.73
2023-02-05T10:08:59.032Z,102144.60
2023-02-05T10:11:34.007Z,102147.09
2023-02-05T10:14:12.246Z,102146.78
2023-02-05T10:16:56.152Z,102145.04
2023-02-05T10:19:41.133Z,102143.35
2023-02-05T10:22:18.642Z,102153.14
2023-02-05T10:25:18.123Z,102149.23
2023-02-05T10:27:54.099Z,102145.06
2023-02-05T10:30:29.496Z,102142.44
2023-02-05T10:33:01.687Z,102139.22
2023-02-05T10:35:44.446Z,102138.59
2023-02-05T10:38:17.928Z,102134.46
2023-02-05T10:40:46.715Z,102136.67
2023-02-05T10:43:23.133Z,102129.92
2023-02-05T10:45:50.884Z,102126.95
2023-02-05T10:48:38.250Z,102126.52
2023-02-05T10:51:08.151Z,102122.77
2023-02-05T10:53:36.789Z,102122.92
2023-02-05T10:56:05.844Z,102115.19
2023-02-05T10:58:40.029Z,102110.98
2023-02-05T11:01:08.136Z,102107.46
2023-02-05T11:03:35.849Z,102106.16
2023-02-05T11:06:03.363Z,102105.27
2023-02-05T11:08:39.393Z,102102.95
2023-02-05T11:11:07.896Z,102102.99
2023-02-05T11:13:37.341Z,102102.67
2023-02-05T11:16:09.186Z,102098.78
2023-02-05T11:18:40.857Z,102096.88
2023-02-05T11:21:10.360Z,102094.57
2023-02-05T11:23:40.249Z,102092.02
2023-02-05T11:26:18.292Z,102087.39
2023-02-05T11:28:45.644Z,102089.27
2023-02-05T11:31:28.316Z,102090.53
2023-02-05T11:34:13.252Z,102091.77
2023-02-05T11:36:49.696Z,102091.11
2023-02-05T11:39:29.219Z,102094.39
2023-02-05T11:41:58.738Z,102098.55
2023-02-05T11:44:30.424Z,102096.12
2023-02-05T11:47:00.600Z,102097.41
2023-02-05T11:49:32.424Z,102094.80
2023-02-05T11:52:01.804Z,102090.14
2023-02-05T11:54:32.541Z,102089.11
2023-02-05T11:57:08.660Z,102092.89
2023-02-05T11:59:36.637Z,102093.53
2023-02-05T12:02:32.205Z,102091.17
2023-02-05T12:05:04.217Z,102095.20
2023-02-05T12:07:36.351Z,102092.10
2023-02-05T12:10:03.513Z,102081.11
2023-02-05T12:12:36.587Z,102076.70
2023-02-05T12:15:12.152Z,102081.64
2023-02-05T12:17:43.894Z,102081.30
2023-02-05T12:20:21.649Z,102079.52
2023-02-05T12:23:28.726Z,102084.43
2023-02-05T12:26:18.698Z,102081.28
2023-02-05T12:28:55.491Z,102076.39
2023-02-05T12:31:31.060Z,102073.45
2023-02-05T12:34:18.974Z,102072.95
2023-02-05T12:36:58.397Z,102075.34
2023-02-05T12:39:38.438Z,102080.42
2023-02-05T12:42:16.330Z,102075.32
2023-02-05T12:44:57.289Z,102081.66
2023-02-05T12:47:41.700Z,102082.01
2023-02-05T12:50:24.254Z,102079.78
2023-02-05T12:53:06.264Z,102078.55
2023-02-05T12:55:49.262Z,102077.70
2023-02-05T12:58:20.287Z,102075.95
2023-02-05T13:00:52.967Z,102078.72
2023-02-05T13:03:29.112Z,102077.02
2023-02-05T13:06:01.741Z,102076.92
2023-02-05T13:08:42.863Z,102073.87
2023-02-05T13:11:13.781Z,102069.86
2023-02-05T13:13:48.158Z,102067.24
2023-02-05T13:16:18.321Z,102067.16
2023-02-05T13:18:49.056Z,102072.48
2023-02-05T13:21:37.037Z,102077.99
2023-02-05T13:24:31.890Z,102077.13
2023-02-05T13:27:28.734Z,102078.13
2023-02-05T13:29:56.546Z,102078.07
2023-02-05T13:32:31.204Z,102080.61
2023-02-05T13:34:59.505Z,102080.35
2023-02-05T13:37:52.944Z,102084.38
2023-02-05T13:40:37.308Z,102088.90
2023-02-05T13:43:37.042Z,102088.77
2023-02-05T13:46:19.260Z,102080.20
2023-02-05T13:49:16.074Z,102078.29
2023-02-05T13:51:48.975Z,102077.30
2023-02-05T13:54:54.745Z,102080.91
2023-02-05T13:58:01.128Z,102081.56
2023-02-05T14:00:29.174Z,102082.70
2023-02-05T14:03:05.770Z,102084.00
2023-02-05T14:05:33.805Z,102086.11
2023-02-05T14:08:03.305Z,102087.85
2023-02-05T14:10:32.182Z,102087.64
2023-02-05T14:13:13.196Z,102086.14
2023-02-05T14:15:42.814Z,102084.92
2023-02-05T14:18:12.882Z,102085.86
2023-02-05T14:20:45.696Z,102093.44
2023-02-05T14:23:38.013Z,102086.94
2023-02-05T14:26:13.755Z,102086.42
2023-02-05T14:28:47.710Z,102086.56
2023-02-05T14:31:50.050Z,102085.16
2023-02-05T14:34:48.689Z,102086.86
2023-02-05T14:37:42.398Z,102085.92
2023-02-05T14:40:25.232Z,102090.24
2023-02-05T14:42:57.095Z,102098.77
2023-02-05T14:45:30.011Z,102099.64
2023-02-05T14:47:58.833Z,102099.65
2023-02-05T14:50:29.541Z,102101.67
2023-02-05T14:52:59.612Z,102105.55
2023-02-05T14:55:32.748Z,102107.88
2023-02-05T14:58:04.369Z,102112.00
2023-02-05T15:00:36.353Z,102118.14
2023-02-05T15:03:35.944Z,102123.58
2023-02-05T15:06:09.740Z,102126.81
2023-02-05T15:08:58.968Z,102131.14
2023-02-05T15:11:35.400Z,102132.11
2023-02-05T15:14:37.949Z,102132.66
2023-02-05T15:17:42.552Z,102135.65
2023-02-05T15:20:21.480Z,102135.62
2023-02-05T15:22:52.328Z,102134.52
2023-02-05T15:25:31.542Z,102140.24
2023-02-05T15:28:02.328Z,102140.02
2023-02-05T15:30:31.543Z,102143.50
2023-02-05T15:33:03.434Z,102145.14
2023-02-05T15:35:34.629Z,102143.56
2023-02-05T15:38:11.307Z,102146.60
2023-02-05T15:40:39.702Z,102148.59
2023-02-05T15:43:21.274Z,102152.02
2023-02-05T15:45:49.171Z,102146.81
2023-02-05T15:48:23.793Z,102148.19
2023-02-05T15:50:54.951Z,102152.15
2023-02-05T15:53:33.025Z,102151.51
2023-02-05T15:56:01.260Z,102153.92
2023-02-05T15:58:30.537Z,102150.96
2023-02-05T16:00:58.264Z,102151.66
2023-02-05T16:03:32.582Z,102153.42
2023-02-05T16:05:59.602Z,102154.38
2023-02-05T16:08:28.342Z,102153.69
2023-02-05T16:10:58.233Z,102155.22
2023-02-05T16:13:26.564Z,102157.30
2023-02-05T16:15:59.763Z,102151.79
2023-02-05T16:18:38.638Z,102154.04
2023-02-05T16:21:09.779Z,102156.27
2023-02-05T16:23:41.194Z,102157.66
2023-02-05T16:26:16.380Z,102164.34
2023-02-05T16:28:47.721Z,102164.98
2023-02-05T16:31:20.602Z,102169.55
2023-02-05T16:33:52.013Z,102173.31
2023-02-05T16:36:22.809Z,102175.88
2023-02-05T16:38:55.369Z,102173.83
2023-02-05T16:41:26.961Z,102177.52
2023-02-05T16:43:55.528Z,102182.60
2023-02-05T16:46:32.461Z,102182.95
2023-02-05T16:49:01.720Z,102185.45
2023-02-05T16:51:49.645Z,102186.67
2023-02-05T16:54:31.861Z,102187.89
2023-02-05T16:57:04.398Z,102187.06
2023-02-05T16:59:35.821Z,102192.00
2023-02-05T17:02:03.531Z,102194.95
2023-02-05T17:04:34.855Z,102195.20
2023-02-05T17:07:04.559Z,102195.83
2023-02-05T17:09:37.251Z,102191.05
2023-02-05T17:12:36.496Z,102190.96
2023-02-05T17:15:06.034Z,102191.35
2023-02-05T17:17:33.558Z,102190.42
2023-02-05T17:20:19.116Z,102189.61
2023-02-05T17:23:12.639Z,102185.70
2023-02-05T17:25:42.257Z,102189.08
2023-02-05T17:28:12.521Z,102192.96
2023-02-05T17:30:41.370Z,102190.95
2023-02-05T17:33:11.368Z,102191.96
2023-02-05T17:35:38.238Z,102196.02
2023-02-05T17:38:05.053Z,102199.42
2023-02-05T17:40:32.616Z,102205.90
2023-02-05T17:42:59.640Z,102210.13
2023-02-05T17:45:29.135Z,102213.65
2023-02-05T17:47:55.917Z,102214.89
2023-02-05T17:50:22.883Z,102210.98
2023-02-05T17:52:50.078Z,102210.98
2023-02-05T17:55:18.654Z,102214.18
2023-02-05T17:57:46.511Z,102216.03
2023-02-05T18:00:19.110Z,102215.86
2023-02-05T18:02:46.460Z,102216.20
2023-02-05T18:05:13.814Z,102218.88
2023-02-05T18:07:43.482Z,102222.02
2023-02-05T18:10:16.446Z,102217.05
2023-02-05T18:12:43.506Z,102220.19
2023-02-05T18:15:13.619Z,102221.95
2023-02-05T18:17:41.879Z,102223.63
2023-02-05T18:20:09.911Z,102227.74
2023-02-05T18:22:36.842Z,102228.02
2023-02-05T18:25:03.870Z,102225.42
2023-02-05T18:27:31.514Z,102226.48
2023-02-05T18:29:58.685Z,102221.44
2023-02-05T18:32:25.539Z,102220.42
2023-02-05T18:34:53.102Z,102218.74
2023-02-05T18:37:20.230Z,102221.36
2023-02-05T18:39:48.133Z,102222.98
2023-02-05T18:42:15.434Z,102219.59
2023-02-05T18:44:42.353Z,102214.35
2023-02-05T18:47:10.997Z,102210.06
2023-02-05T18:49:38.121Z,102208.84
2023-02-05T18:52:06.342Z,102211.81
2023-02-05T18:54:33.374Z,102215.28
2023-02-05T18:57:00.406Z,102216.70
2023-02-05T18:59:27.540Z,102214.23
2023-02-05T19:01:54.843Z,102218.23
2023-02-05T19:04:22.010Z,102219.27
2023-02-05T19:06:53.577Z,102220.69
2023-02-05T19:09:21.655Z,102223.07
2023-02-05T19:11:48.914Z,102224.50
2023-02-05T19:14:18.591Z,102221.11
2023-02-05T19:16:47.335Z,102226.13
2023-02-05T19:19:16.367Z,102230.99
2023-02-05T19:21:44.960Z,102230.36
2023-02-05T19:24:12.809Z,102224.34
2023-02-05T19:26:43.525Z,102228.27
2023-02-05T19:29:14.356Z,102227.05
2023-02-05T19:31:41.868Z,102223.61
2023-02-05T19:34:11.277Z,102221.58
2023-02-05T19:36:39.233Z,102226.14
2023-02-05T19:39:07.807Z,102232.20
2023-02-05T19:41:36.993Z,102233.42
2023-02-05T19:44:06.286Z,102233.13
2023-02-05T19:46:35.697Z,102230.02
2023-02-05T19:49:06.175Z,102231.90
2023-02-05T19:51:33.224Z,102235.11
2023-02-05T19:54:03.205Z,102235.56
2023-02-05T19:56:30.646Z,102237.70
2023-02-05T19:58:58.408Z,102244.70
2023-02-05T20:01:26.810Z,102243.33
2023-02-05T20:03:55.088Z,102247.66
2023-02-05T20:06:24.350Z,102245.63
2023-02-05T20:08:51.860Z,102249.33
2023-02-05T20:11:19.099Z,102254.67
2023-02-05T20:13:47.076Z,102257.11
2023-02-05T20:16:16.580Z,102254.08
2023-02-05T20:18:44.627Z,102254.06
2023-02-05T20:21:14.243Z,102257.06
2023-02-05T20:23:41.761Z,102263.21
2023-02-05T20:26:10.528Z,102272.08
2023-02-05T20:28:59.999Z,102269.81
2023-02-05T20:31:34.408Z,102271.00
2023-02-05T20:34:01.677Z,102272.63
2023-02-05T20:36:28.732Z,102270.27
2023-02-05T20:38:59.031Z,102275.00
2023-02-05T20:41:26.293Z,102279.18
2023-02-05T20:43:53.119Z,102283.42
2023-02-05T20:46:20.459Z,102287.35
2023-02-05T20:48:48.699Z,102293.37
2023-02-05T20:51:19.805Z,102294.72
2023-02-05T20:53:47.845Z,102294.02
2023-02-05T20:56:17.298Z,102299.02
2023-02-05T20:58:44.665Z,102299.58
2023-02-05T21:01:13.391Z,102305.27
2023-02-05T21:03:43.422Z,102303.76
2023-02-05T21:06:10.947Z,102302.42
2023-02-05T21:08:40.829Z,102308.45
2023-02-05T21:11:08.027Z,102309.52
2023-02-05T21:13:35.362Z,102299.04
2023-02-05T21:16:04.798Z,102298.81
2023-02-05T21:18:32.932Z,102300.39
2023-02-05T21:21:08.501Z,102300.22
2023-02-05T21:23:35.711Z,102302.58
2023-02-05T21:26:05.874Z,102310.64
2023-02-05T21:28:33.350Z,102313.69
2023-02-05T21:31:08.582Z,102312.73
2023-02-05T21:33:35.958Z,102318.55
2023-02-05T21:36:07.809Z,102320.07
2023-02-05T21:38:37.403Z,102323.57
2023-02-05T21:41:08.881Z,102328.06
2023-02-05T21:43:35.754Z,102331.70
2023-02-05T21:46:05.010Z,102331.77
2023-02-05T21:48:32.098Z,102336.59
2023-02-05T21:51:00.145Z,102339.83
2023-02-05T21:53:26.969Z,102336.42
2023-02-05T21:55:54.513Z,102340.65
2023-02-05T21:58:21.636Z,102337.38
2023-02-05T22:00:48.644Z,102336.13
2023-02-05T22:03:15.555Z,102339.91
2023-02-05T22:05:42.416Z,102352.20
2023-02-05T22:08:11.895Z,102352.55
2023-02-05T22:10:38.942Z,102352.34
2023-02-05T22:13:06.010Z,102359.27
2023-02-05T22:15:33.242Z,102359.33
2023-02-05T22:18:00.207Z,102356.35
2023-02-05T22:20:27.028Z,102355.14
2023-02-05T22:22:54.132Z,102358.64
2023-02-05T22:25:21.416Z,102357.73
2023-02-05T22:27:48.988Z,102359.89
2023-02-05T22:30:16.559Z,102360.04
2023-02-05T22:32:43.425Z,102355.96
2023-02-05T22:35:10.801Z,102353.23
2023-02-05T22:37:37.591Z,102354.49
2023-02-05T22:40:04.688Z,102352.06
2023-02-05T22:42:33.537Z,102355.61
2023-02-05T22:45:00.668Z,102361.13
2023-02-05T22:47:27.626Z,102355.44
2023-02-05T22:49:54.528Z,102349.63
2023-02-05T22:52:21.536Z,102349.23
2023-02-05T22:54:48.290Z,102345.73
2023-02-05T22:57:15.148Z,102340.63
2023-02-05T22:59:42.072Z,102343.14
2023-02-05T23:02:08.963Z,102338.77
2023-02-05T23:04:35.513Z,102340.27
2023-02-05T23:07:02.392Z,102346.44
2023-02-05T23:09:29.275Z,102355.16
2023-02-05T23:11:56.709Z,102354.09
2023-02-05T23:14:23.905Z,102350.84
2023-02-05T23:16:50.836Z,102350.33
2023-02-05T23:19:22.337Z,102350.65
2023-02-05T23:21:50.177Z,102348.53
2023-02-05T23:24:17.699Z,102347.98
2023-02-05T23:26:46.596Z,102355.64
2023-02-05T23:29:15.624Z,102353.45
2023-02-05T23:31:42.871Z,102349.86
2023-02-05T23:34:09.933Z,102345.36
2023-02-05T23:36:37.751Z,102349.62
2023-02-05T23:39:06.313Z,102350.98
2023-02-05T23:41:40.447Z,102349.38
2023-02-05T23:44:12.904Z,102347.39
2023-02-05T23:46:41.091Z,102350.20
2023-02-05T23:49:09.151Z,102350.27
2023-02-05T23:51:36.719Z,102347.15
2023-02-05T23:54:03.757Z,102338.09
2023-02-05T23:56:30.769Z,102337.95
2023-02-05T23:58:57.656Z,102334.46
